createdAt,value
2018-08-09T00:02:03.166Z,84.46
2018-08-09T00:05:07.377Z,84.40
2018-08-09T00:08:11.577Z,84.94
2018-08-09T00:11:15.789Z,85.68
2018-08-09T00:14:20.006Z,85.28
2018-08-09T00:17:24.224Z,85.38
2018-08-09T00:20:28.444Z,86.36
2018-08-09T00:23:32.620Z,85.99
2018-08-09T00:26:36.837Z,85.85
2018-08-09T00:29:41.027Z,86.30
2018-08-09T00:32:45.227Z,86.45
2018-08-09T00:35:49.412Z,86.67
2018-08-09T00:38:53.732Z,86.69
2018-08-09T00:41:57.961Z,87.41
2018-08-09T00:45:02.172Z,86.85
2018-08-09T00:48:06.501Z,87.01
2018-08-09T00:51:10.716Z,87.54
2018-08-09T00:54:14.913Z,87.08
2018-08-09T00:57:19.129Z,87.13
2018-08-09T01:00:23.348Z,86.69
2018-08-09T01:03:27.540Z,86.72
2018-08-09T01:06:31.752Z,86.76
2018-08-09T01:09:35.957Z,86.92
2018-08-09T01:12:40.172Z,86.74
2018-08-09T01:15:44.484Z,86.74
2018-08-09T01:18:48.707Z,87.25
2018-08-09T01:21:52.930Z,87.20
2018-08-09T01:24:57.158Z,86.88
2018-08-09T01:28:01.373Z,86.95
2018-08-09T01:31:05.593Z,86.85
2018-08-09T01:34:10.738Z,86.39
2018-08-09T01:37:14.960Z,86.30
2018-08-09T01:40:19.169Z,85.90
2018-08-09T01:43:40.636Z,86.18
2018-08-09T01:46:44.845Z,87.24
2018-08-09T01:49:49.048Z,86.88
2018-08-09T01:52:53.262Z,87.07
2018-08-09T01:55:57.657Z,86.98
2018-08-09T01:59:01.878Z,87.66
2018-08-09T02:02:06.141Z,87.93
2018-08-09T02:05:10.849Z,88.42
2018-08-09T02:08:15.073Z,88.68
2018-08-09T02:11:19.264Z,88.64
2018-08-09T02:14:23.497Z,89.09
2018-08-09T02:17:27.711Z,88.24
2018-08-09T02:20:32.005Z,88.34
2018-08-09T02:23:36.197Z,88.25
2018-08-09T02:26:40.382Z,88.20
2018-08-09T02:29:44.601Z,88.71
2018-08-09T02:32:48.863Z,88.63
2018-08-09T02:35:53.074Z,88.33
2018-08-09T02:38:57.289Z,88.37
2018-08-09T02:42:01.513Z,88.71
2018-08-09T02:45:05.732Z,88.80
2018-08-09T02:48:09.934Z,88.43
2018-08-09T02:51:14.162Z,88.67
2018-08-09T02:54:18.382Z,87.98
2018-08-09T02:57:22.600Z,87.71
2018-08-09T03:00:26.830Z,88.01
2018-08-09T03:03:31.053Z,87.70
2018-08-09T03:06:35.334Z,88.35
2018-08-09T03:09:39.584Z,88.11
2018-08-09T03:12:43.842Z,87.42
2018-08-09T03:15:48.064Z,87.75
2018-08-09T03:18:52.646Z,87.34
2018-08-09T03:21:56.911Z,87.88
2018-08-09T03:25:01.157Z,87.31
2018-08-09T03:28:05.393Z,87.34
2018-08-09T03:31:09.619Z,87.21
2018-08-09T03:34:13.861Z,87.71
2018-08-09T03:37:18.061Z,87.31
2018-08-09T03:40:22.300Z,87.44
2018-08-09T03:43:26.537Z,88.48
2018-08-09T03:46:30.777Z,88.31
2018-08-09T03:49:35.118Z,87.95
2018-08-09T03:52:39.326Z,87.94
2018-08-09T03:55:43.587Z,88.36
2018-08-09T03:58:47.806Z,88.03
2018-08-09T04:01:52.018Z,88.65
2018-08-09T04:04:56.282Z,88.46
2018-08-09T04:08:00.482Z,88.49
2018-08-09T04:11:04.748Z,87.80
2018-08-09T04:14:09.320Z,87.46
2018-08-09T04:17:18.975Z,87.97
2018-08-09T04:20:23.246Z,87.52
2018-08-09T04:23:27.441Z,87.99
2018-08-09T04:26:31.732Z,88.37
2018-08-09T04:29:35.940Z,88.71
2018-08-09T04:32:40.173Z,88.68
2018-08-09T04:35:44.471Z,88.67
2018-08-09T04:38:48.716Z,88.82
2018-08-09T04:41:53.018Z,88.33
2018-08-09T04:44:57.246Z,88.78
2018-08-09T04:48:01.509Z,88.12
2018-08-09T04:51:05.746Z,87.91
2018-08-09T04:54:09.985Z,88.34
2018-08-09T04:57:14.224Z,87.65
2018-08-09T05:00:18.472Z,88.11
2018-08-09T05:03:22.689Z,87.69
2018-08-09T05:06:26.930Z,87.65
2018-08-09T05:09:31.155Z,87.35
2018-08-09T05:12:35.397Z,87.37
2018-08-09T05:15:39.628Z,87.20
2018-08-09T05:18:43.874Z,87.12
2018-08-09T05:21:48.141Z,87.23
2018-08-09T05:24:52.358Z,87.68
2018-08-09T05:27:56.603Z,87.29
2018-08-09T05:31:00.829Z,87.19
2018-08-09T05:34:05.152Z,87.16
2018-08-09T05:37:09.346Z,87.42
2018-08-09T05:40:13.636Z,87.74
2018-08-09T05:43:17.885Z,87.68
2018-08-09T05:46:22.126Z,86.91
2018-08-09T05:49:26.408Z,86.56
2018-08-09T05:52:30.623Z,85.97
2018-08-09T05:55:34.829Z,85.97
2018-08-09T05:58:39.061Z,84.85
2018-08-09T06:01:43.338Z,85.25
2018-08-09T06:04:47.583Z,83.02
2018-08-09T06:07:51.808Z,83.50
2018-08-09T06:10:56.061Z,83.23
2018-08-09T06:14:00.307Z,83.11
2018-08-09T06:17:04.545Z,82.44
2018-08-09T06:20:08.761Z,82.48
2018-08-09T06:23:13.028Z,82.02
2018-08-09T06:26:17.276Z,82.65
2018-08-09T06:29:21.486Z,82.08
2018-08-09T06:32:25.698Z,81.92
2018-08-09T06:35:29.913Z,80.98
2018-08-09T06:38:34.097Z,81.18
2018-08-09T06:41:39.031Z,80.66
2018-08-09T06:44:43.240Z,80.42
2018-08-09T06:47:47.451Z,80.08
2018-08-09T06:50:51.673Z,79.73
2018-08-09T06:53:55.885Z,79.76
2018-08-09T06:57:00.091Z,78.20
2018-08-09T07:00:05.804Z,78.05
2018-08-09T07:03:09.976Z,76.84
2018-08-09T07:06:14.212Z,77.03
2018-08-09T07:09:18.404Z,76.49
2018-08-09T07:12:22.617Z,75.42
2018-08-09T07:15:26.830Z,76.16
2018-08-09T07:18:31.085Z,75.96
2018-08-09T07:21:35.316Z,75.45
2018-08-09T07:24:39.548Z,74.42
2018-08-09T07:27:43.740Z,72.48
2018-08-09T07:30:47.960Z,72.10
2018-08-09T07:33:52.228Z,71.94
2018-08-09T07:36:56.482Z,71.35
2018-08-09T07:40:00.714Z,71.51
2018-08-09T07:43:04.976Z,71.15
2018-08-09T07:46:09.857Z,70.52
2018-08-09T07:49:14.097Z,67.65
2018-08-09T07:52:18.314Z,67.73
2018-08-09T07:55:22.553Z,68.27
2018-08-09T07:58:26.921Z,68.01
2018-08-09T08:01:31.147Z,67.83
2018-08-09T08:04:35.372Z,67.59
2018-08-09T08:07:39.609Z,65.22
2018-08-09T08:10:43.844Z,65.20
2018-08-09T08:13:48.072Z,64.70
2018-08-09T08:16:52.316Z,64.35
2018-08-09T08:19:56.548Z,63.99
2018-08-09T08:23:00.772Z,62.12
2018-08-09T08:26:05.082Z,61.15
2018-08-09T08:29:09.336Z,60.84
2018-08-09T08:32:13.561Z,61.76
2018-08-09T08:35:17.801Z,57.57
2018-08-09T08:38:22.045Z,57.07
2018-08-09T08:41:26.314Z,56.43
2018-08-09T08:44:30.554Z,56.54
2018-08-09T08:47:34.779Z,56.76
2018-08-09T08:50:38.998Z,57.05
2018-08-09T08:53:43.249Z,56.80
2018-08-09T08:56:47.496Z,56.31
2018-08-09T08:59:51.752Z,56.73
2018-08-09T09:02:55.977Z,55.80
2018-08-09T09:06:00.193Z,56.19
2018-08-09T09:09:07.882Z,54.56
2018-08-09T09:12:12.104Z,54.31
2018-08-09T09:15:16.552Z,53.78
2018-08-09T09:18:20.800Z,53.49
2018-08-09T09:21:25.049Z,54.23
2018-08-09T09:24:29.372Z,52.25
2018-08-09T09:27:33.700Z,52.01
2018-08-09T09:30:37.962Z,52.20
2018-08-09T09:33:42.184Z,51.10
2018-08-09T09:36:46.485Z,50.65
2018-08-09T09:39:50.727Z,50.81
2018-08-09T09:42:55.006Z,50.25
2018-08-09T09:45:59.256Z,50.46
2018-08-09T09:49:03.582Z,49.18
2018-08-09T09:52:07.805Z,49.81
2018-08-09T09:55:12.043Z,49.55
2018-08-09T09:58:16.342Z,49.76
2018-08-09T10:01:25.728Z,49.80
2018-08-09T10:04:29.977Z,47.90
2018-08-09T10:07:34.217Z,48.76
2018-08-09T10:10:38.460Z,49.32
2018-08-09T10:13:42.721Z,49.64
2018-08-09T10:16:46.971Z,49.70
2018-08-09T10:19:51.249Z,49.55
2018-08-09T10:22:55.444Z,47.06
2018-08-09T10:25:59.686Z,47.92
2018-08-09T10:29:03.941Z,47.49
2018-08-09T10:32:08.171Z,47.61
2018-08-09T10:35:12.573Z,48.30
2018-08-09T10:38:16.794Z,47.72
2018-08-09T10:41:21.008Z,47.82
2018-08-09T10:44:25.232Z,49.06
2018-08-09T10:47:29.437Z,49.39
2018-08-09T10:50:33.675Z,48.82
2018-08-09T10:53:37.910Z,49.54
2018-08-09T10:56:42.128Z,49.59
2018-08-09T10:59:46.341Z,49.25
2018-08-09T11:02:50.552Z,49.17
2018-08-09T11:05:54.769Z,48.77
2018-08-09T11:08:59.009Z,48.34
2018-08-09T11:12:03.232Z,48.14
2018-08-09T11:15:10.653Z,48.50
2018-08-09T11:18:14.781Z,48.04
2018-08-09T11:21:19.025Z,49.17
2018-08-09T11:24:23.245Z,49.51
2018-08-09T11:27:27.457Z,48.97
2018-08-09T11:30:31.680Z,49.03
2018-08-09T11:33:35.933Z,49.41
2018-08-09T11:36:40.138Z,47.76
2018-08-09T11:39:44.351Z,48.61
2018-08-09T11:42:48.559Z,47.46
2018-08-09T11:45:52.780Z,47.89
2018-08-09T11:48:56.973Z,47.24
2018-08-09T11:52:01.186Z,47.72
2018-08-09T11:55:05.417Z,49.12
2018-08-09T11:58:09.695Z,48.99
2018-08-09T12:01:13.897Z,50.10
2018-08-09T12:04:18.189Z,50.21
2018-08-09T12:07:22.395Z,48.61
2018-08-09T12:10:26.616Z,49.94
2018-08-09T12:13:30.881Z,50.06
2018-08-09T12:16:35.468Z,50.65
2018-08-09T12:19:39.702Z,50.32
2018-08-09T12:22:43.931Z,51.68
2018-08-09T12:25:48.178Z,51.37
2018-08-09T12:28:52.378Z,50.19
2018-08-09T12:31:56.620Z,50.82
2018-08-09T12:35:00.841Z,51.62
2018-08-09T12:38:05.080Z,49.80
2018-08-09T12:41:09.309Z,50.35
2018-08-09T12:44:13.541Z,50.46
2018-08-09T12:47:17.741Z,51.49
2018-08-09T12:50:21.950Z,51.17
2018-08-09T12:53:26.201Z,51.21
2018-08-09T12:56:30.541Z,51.35
2018-08-09T12:59:34.756Z,51.25
2018-08-09T13:02:39.137Z,51.34
2018-08-09T13:05:43.425Z,51.86
2018-08-09T13:08:47.605Z,52.89
2018-08-09T13:11:51.842Z,52.77
2018-08-09T13:14:56.092Z,54.26
2018-08-09T13:18:00.305Z,54.86
2018-08-09T13:21:04.545Z,54.86
2018-08-09T13:24:08.801Z,53.75
2018-08-09T13:27:13.104Z,54.68
2018-08-09T13:30:17.354Z,53.34
2018-08-09T13:33:21.554Z,54.60
2018-08-09T13:36:26.153Z,54.08
2018-08-09T13:39:30.366Z,53.63
2018-08-09T13:42:34.621Z,53.31
2018-08-09T13:45:38.813Z,54.04
2018-08-09T13:48:43.027Z,54.15
2018-08-09T13:51:47.268Z,54.05
2018-08-09T13:54:51.506Z,54.18
2018-08-09T13:57:55.770Z,53.77
2018-08-09T14:00:59.973Z,54.85
2018-08-09T14:04:04.215Z,54.95
2018-08-09T14:07:08.937Z,55.27
2018-08-09T14:10:13.381Z,53.41
2018-08-09T14:13:17.596Z,53.77
2018-08-09T14:16:21.833Z,53.60
2018-08-09T14:19:26.056Z,54.20
2018-08-09T14:22:30.274Z,53.90
2018-08-09T14:25:34.475Z,52.64
2018-08-09T14:28:38.711Z,53.98
2018-08-09T14:31:42.933Z,54.15
2018-08-09T14:34:47.185Z,53.84
2018-08-09T14:37:51.487Z,55.56
2018-08-09T14:40:55.655Z,55.89
2018-08-09T14:43:59.868Z,56.36
2018-08-09T14:47:04.121Z,55.57
2018-08-09T14:50:08.519Z,57.32
2018-08-09T14:53:12.765Z,59.80
2018-08-09T14:56:16.996Z,61.38
2018-08-09T14:59:21.212Z,62.75
2018-08-09T15:02:25.613Z,64.97
2018-08-09T15:05:29.844Z,66.20
2018-08-09T15:08:34.052Z,67.71
2018-08-09T15:11:38.292Z,68.59
2018-08-09T15:14:42.510Z,69.27
2018-08-09T15:17:46.749Z,69.85
2018-08-09T15:20:50.999Z,69.54
2018-08-09T15:23:55.258Z,69.63
2018-08-09T15:26:59.475Z,71.14
2018-08-09T15:30:03.731Z,70.90
2018-08-09T15:33:07.985Z,71.10
2018-08-09T15:36:12.229Z,72.19
2018-08-09T15:39:16.896Z,70.38
2018-08-09T15:42:21.129Z,69.61
2018-08-09T15:45:25.340Z,69.53
2018-08-09T15:48:29.590Z,67.22
2018-08-09T15:51:33.817Z,66.23
2018-08-09T15:54:38.064Z,66.01
2018-08-09T15:57:42.293Z,68.86
2018-08-09T16:00:46.508Z,72.42
2018-08-09T16:03:50.778Z,71.63
2018-08-09T16:06:54.995Z,74.65
2018-08-09T16:09:59.229Z,74.15
2018-08-09T16:13:03.445Z,77.87
2018-08-09T16:16:07.754Z,78.98
2018-08-09T16:19:11.924Z,79.08
2018-08-09T16:22:16.159Z,79.24
2018-08-09T16:25:20.804Z,80.56
2018-08-09T16:28:25.058Z,81.01
2018-08-09T16:31:29.309Z,81.86
2018-08-09T16:34:33.553Z,80.77
2018-08-09T16:37:37.957Z,80.29
2018-08-09T16:40:42.203Z,79.66
2018-08-09T16:43:46.461Z,77.94
2018-08-09T16:46:50.748Z,77.10
2018-08-09T16:49:54.972Z,77.20
2018-08-09T16:52:59.216Z,77.79
2018-08-09T16:56:03.517Z,76.67
2018-08-09T16:59:07.741Z,78.25
2018-08-09T17:02:11.985Z,78.17
2018-08-09T17:05:21.589Z,77.99
2018-08-09T17:08:25.853Z,75.46
2018-08-09T17:11:30.063Z,74.68
2018-08-09T17:14:34.296Z,75.70
2018-08-09T17:17:38.569Z,73.72
2018-08-09T17:20:42.799Z,74.11
2018-08-09T17:23:47.046Z,74.48
2018-08-09T17:26:51.268Z,74.15
2018-08-09T17:29:55.489Z,73.16
2018-08-09T17:33:00.013Z,73.06
2018-08-09T17:36:04.253Z,74.05
2018-08-09T17:39:11.509Z,73.23
2018-08-09T17:42:15.763Z,72.49
2018-08-09T17:45:22.738Z,73.38
2018-08-09T17:48:26.989Z,73.61
2018-08-09T17:51:31.193Z,73.47
2018-08-09T17:54:35.412Z,74.86
2018-08-09T17:57:40.533Z,74.55
2018-08-09T18:00:44.794Z,74.98
2018-08-09T18:03:49.051Z,73.87
2018-08-09T18:06:53.276Z,74.89
2018-08-09T18:09:57.493Z,74.15
2018-08-09T18:13:01.785Z,74.38
2018-08-09T18:16:06.192Z,74.98
2018-08-09T18:19:10.443Z,75.14
2018-08-09T18:22:14.716Z,76.73
2018-08-09T18:25:18.913Z,82.39
2018-08-09T18:28:23.124Z,80.50
2018-08-09T18:31:27.305Z,83.67
2018-08-09T18:34:31.512Z,87.18
2018-08-09T18:37:35.720Z,86.96
2018-08-09T18:40:39.937Z,87.59
2018-08-09T18:43:44.193Z,90.98
2018-08-09T18:46:48.402Z,91.58
2018-08-09T18:49:52.612Z,93.73
2018-08-09T18:52:57.113Z,95.07
2018-08-09T18:56:01.341Z,95.04
2018-08-09T18:59:05.632Z,96.12
2018-08-09T19:02:09.865Z,96.07
2018-08-09T19:05:14.192Z,95.59
2018-08-09T19:08:18.385Z,96.34
2018-08-09T19:11:22.724Z,97.72
2018-08-09T19:14:26.942Z,97.55
2018-08-09T19:17:31.168Z,98.43
2018-08-09T19:20:36.356Z,98.89
2018-08-09T19:23:40.580Z,99.01
2018-08-09T19:26:44.874Z,98.53
2018-08-09T19:29:49.197Z,99.21
2018-08-09T19:32:53.467Z,99.20
2018-08-09T19:35:57.720Z,100.00
2018-08-09T19:39:02.055Z,99.96
2018-08-09T19:42:06.194Z,99.84
2018-08-09T19:45:14.402Z,100.00
2018-08-09T19:48:18.679Z,100.00
2018-08-09T19:51:22.909Z,100.00
2018-08-09T19:54:27.129Z,100.00
2018-08-09T19:57:31.369Z,100.00
2018-08-09T20:00:35.604Z,100.00
2018-08-09T20:03:39.854Z,99.81
2018-08-09T20:06:44.138Z,100.00
2018-08-09T20:09:48.353Z,99.78
2018-08-09T20:12:52.565Z,99.70
2018-08-09T20:15:56.841Z,99.79
2018-08-09T20:19:01.054Z,100.00
2018-08-09T20:22:07.483Z,99.97
2018-08-09T20:25:12.615Z,100.00
2018-08-09T20:28:16.817Z,100.00
2018-08-09T20:31:21.045Z,99.03
2018-08-09T20:34:25.257Z,98.98
2018-08-09T20:37:29.464Z,99.55
2018-08-09T20:40:33.685Z,98.72
2018-08-09T20:43:37.885Z,98.80
2018-08-09T20:46:42.118Z,98.64
2018-08-09T20:49:46.318Z,99.07
2018-08-09T20:52:51.103Z,99.57
2018-08-09T20:55:55.340Z,99.98
2018-08-09T20:58:59.587Z,100.00
2018-08-09T21:02:03.868Z,99.27
2018-08-09T21:05:08.073Z,99.92
2018-08-09T21:08:12.298Z,99.86
2018-08-09T21:11:16.541Z,99.56
2018-08-09T21:14:20.780Z,99.45
2018-08-09T21:17:24.992Z,99.28
2018-08-09T21:20:29.214Z,98.45
2018-08-09T21:23:33.462Z,98.60
2018-08-09T21:26:37.674Z,99.70
2018-08-09T21:29:42.660Z,99.47
2018-08-09T21:32:47.368Z,99.96
2018-08-09T21:35:51.628Z,100.00
2018-08-09T21:38:55.906Z,99.52
2018-08-09T21:42:00.126Z,99.91
2018-08-09T21:45:05.614Z,99.86
2018-08-09T21:48:09.887Z,99.22
2018-08-09T21:51:14.106Z,98.88
2018-08-09T21:54:18.384Z,98.61
2018-08-09T21:57:22.637Z,99.01
2018-08-09T22:01:04.228Z,99.29
2018-08-09T22:04:08.442Z,98.26
2018-08-09T22:07:17.857Z,98.24
2018-08-09T22:10:27.402Z,98.66
2018-08-09T22:13:36.973Z,98.47
2018-08-09T22:16:46.529Z,98.81
2018-08-09T22:19:56.027Z,99.26
2018-08-09T22:23:00.258Z,99.38
2018-08-09T22:26:04.499Z,99.12
2018-08-09T22:29:08.754Z,98.98
2018-08-09T22:32:12.957Z,98.55
2018-08-09T22:35:17.215Z,99.03
2018-08-09T22:38:21.426Z,99.03
2018-08-09T22:41:25.649Z,99.25
2018-08-09T22:44:29.894Z,99.36
2018-08-09T22:47:34.116Z,99.57
2018-08-09T22:50:38.341Z,99.29
2018-08-09T22:53:42.601Z,100.00
2018-08-09T22:56:46.821Z,99.93
2018-08-09T22:59:51.040Z,99.65
2018-08-09T23:02:55.328Z,99.97
2018-08-09T23:05:59.574Z,100.00
2018-08-09T23:09:04.126Z,100.00
2018-08-09T23:12:08.367Z,100.00
2018-08-09T23:15:12.789Z,99.78
2018-08-09T23:18:17.009Z,98.95
2018-08-09T23:21:21.205Z,99.36
2018-08-09T23:24:25.430Z,98.82
2018-08-09T23:27:29.644Z,97.91
2018-08-09T23:30:33.856Z,98.17
2018-08-09T23:33:38.088Z,98.58
2018-08-09T23:36:42.305Z,98.28
2018-08-09T23:39:46.542Z,97.75
2018-08-09T23:42:50.766Z,96.72
2018-08-09T23:45:54.989Z,97.32
2018-08-09T23:48:59.207Z,97.03
2018-08-09T23:52:03.514Z,96.71
2018-08-09T23:55:13.565Z,96.25
2018-08-09T23:58:49.217Z,96.14
